北京 の空港の天気 - METARとTAF

北京首都国際空港 ( ZBAA / PEK ) - 中国 北京市
飛行場実況気象(Metar)
観測時間08/11 14:00 CST (08/11 06:00 UTC)
風向・風速不定 1m/s
視程10km以上
天気現象
なし
気温35℃
湿度42%
気圧1004hPa
METARZBAA 110600Z VRB01MPS CAVOK 35/20 Q1004 NOSIG
過去の天気等 Google飛行場航空写真 Wunderground天気予報

過去48時間のMETAR

飛行場予報(TAF)
発表時間: 8/11 11:20 CST (8/11 03:20 UTC)
予報対象時間: 11日14時 CST ~ 12日14時 CST
風向・風速南 4m/s
視程10km以上
なし
TAF ZBAA 110320Z 1106/1206 18004MPS CAVOK TX35/1107Z TN23/1121Z